createdAt,value
2023-02-22T00:00:06.036Z,96.74
2023-02-22T00:01:06.036Z,96.74
2023-02-22T00:02:06.036Z,96.74
2023-02-22T00:03:06.021Z,96.74
2023-02-22T00:04:06.036Z,96.74
2023-02-22T00:05:06.036Z,96.74
2023-02-22T00:06:06.037Z,96.74
2023-02-22T00:07:06.022Z,96.74
2023-02-22T00:08:06.036Z,96.74
2023-02-22T00:09:06.037Z,96.74
2023-02-22T00:10:06.048Z,96.74
2023-02-22T00:11:06.022Z,96.73
2023-02-22T00:12:06.037Z,96.73
2023-02-22T00:13:06.037Z,96.73
2023-02-22T00:14:06.023Z,96.74
2023-02-22T00:15:06.024Z,96.73
2023-02-22T00:16:06.038Z,96.73
2023-02-22T00:17:06.038Z,96.73
2023-02-22T00:18:06.024Z,96.73
2023-02-22T00:19:06.037Z,96.73
2023-02-22T00:20:06.038Z,96.73
2023-02-22T00:21:06.037Z,96.74
2023-02-22T00:22:06.024Z,96.73
2023-02-22T00:23:06.038Z,96.73
2023-02-22T00:24:06.065Z,96.74
2023-02-22T00:25:06.038Z,96.73
2023-02-22T00:26:06.024Z,96.73
2023-02-22T00:27:06.038Z,96.73
2023-02-22T00:28:06.040Z,96.73
2023-02-22T00:29:06.038Z,96.73
2023-02-22T00:30:06.024Z,96.73
2023-02-22T00:31:06.087Z,96.73
2023-02-22T00:32:06.041Z,96.73
2023-02-22T00:33:06.025Z,96.73
2023-02-22T00:34:06.025Z,96.73
2023-02-22T00:35:06.040Z,96.72
2023-02-22T00:36:06.040Z,96.73
2023-02-22T00:37:06.026Z,96.73
2023-02-22T00:38:06.063Z,96.72
2023-02-22T00:39:06.040Z,96.72
2023-02-22T00:40:06.040Z,96.72
2023-02-22T00:41:06.026Z,96.73
2023-02-22T00:42:06.041Z,96.72
2023-02-22T00:43:06.041Z,96.72
2023-02-22T00:44:06.041Z,96.72
2023-02-22T00:45:06.026Z,96.72
2023-02-22T00:46:06.040Z,96.72
2023-02-22T00:47:06.042Z,96.72
2023-02-22T00:48:06.040Z,96.72
2023-02-22T00:49:06.026Z,96.72
2023-02-22T00:50:06.042Z,96.72
2023-02-22T00:51:06.042Z,96.72
2023-02-22T00:52:06.027Z,96.72
2023-02-22T00:53:06.027Z,96.72
2023-02-22T00:54:06.042Z,96.72
2023-02-22T00:55:06.042Z,96.72
2023-02-22T00:56:06.027Z,96.72
2023-02-22T00:57:06.027Z,96.72
2023-02-22T00:58:06.042Z,96.72
2023-02-22T00:59:06.050Z,96.71
2023-02-22T01:00:06.029Z,96.72
2023-02-22T01:01:06.043Z,96.71
2023-02-22T01:02:06.042Z,96.71
2023-02-22T01:03:06.043Z,96.71
2023-02-22T01:04:06.028Z,96.71
2023-02-22T01:05:06.042Z,96.71
2023-02-22T01:06:06.045Z,96.71
2023-02-22T01:07:06.042Z,96.71
2023-02-22T01:08:06.028Z,96.71
2023-02-22T01:09:06.044Z,96.71
2023-02-22T01:10:06.045Z,96.71
2023-02-22T01:11:06.043Z,96.71
2023-02-22T01:12:06.029Z,96.71
2023-02-22T01:13:06.044Z,96.7
2023-02-22T01:14:06.044Z,96.7
2023-02-22T01:15:06.029Z,96.71
2023-02-22T01:16:06.029Z,96.7
2023-02-22T01:17:06.044Z,96.7
2023-02-22T01:18:06.045Z,96.7
2023-02-22T01:19:06.030Z,96.7
2023-02-22T01:20:06.045Z,96.7
2023-02-22T01:21:06.044Z,96.7
2023-02-22T01:22:06.045Z,96.7
2023-02-22T01:23:06.030Z,96.7
2023-02-22T01:24:06.045Z,96.7
2023-02-22T01:25:06.044Z,96.7
2023-02-22T01:26:06.045Z,96.7
2023-02-22T01:27:06.030Z,96.7
2023-02-22T01:28:06.044Z,96.7
2023-02-22T01:29:06.045Z,96.7
2023-02-22T01:30:06.046Z,96.7
2023-02-22T01:31:06.032Z,96.7
2023-02-22T01:32:06.069Z,96.7
2023-02-22T01:33:06.046Z,96.7
2023-02-22T01:34:06.031Z,96.69
2023-02-22T01:35:06.031Z,96.69
2023-02-22T01:36:06.045Z,96.69
2023-02-22T01:37:06.046Z,96.69
2023-02-22T01:38:06.031Z,96.69
2023-02-22T01:39:06.072Z,96.69
2023-02-22T01:40:06.047Z,96.69
2023-02-22T01:41:06.047Z,96.69
2023-02-22T01:42:06.033Z,96.69
2023-02-22T01:43:06.046Z,96.69
2023-02-22T01:44:06.047Z,96.69
2023-02-22T01:45:06.046Z,96.69
2023-02-22T01:46:06.032Z,96.69
2023-02-22T01:47:06.046Z,96.69
2023-02-22T01:48:06.047Z,96.69
2023-02-22T01:49:06.047Z,96.69
2023-02-22T01:50:06.033Z,96.68
2023-02-22T01:51:06.047Z,96.69
2023-02-22T01:52:06.048Z,96.69
2023-02-22T01:53:06.033Z,96.69
2023-02-22T01:54:06.033Z,96.69
2023-02-22T01:55:06.048Z,96.69
2023-02-22T01:56:06.048Z,96.7
2023-02-22T01:57:06.034Z,96.69
2023-02-22T01:58:06.033Z,96.69
2023-02-22T01:59:06.047Z,96.69
2023-02-22T02:00:06.048Z,96.69
2023-02-22T02:01:06.034Z,96.69
2023-02-22T02:02:06.048Z,96.68
2023-02-22T02:03:06.049Z,96.69
2023-02-22T02:04:06.048Z,96.69
2023-02-22T02:05:06.034Z,96.69
2023-02-22T02:06:06.048Z,96.69
2023-02-22T02:07:06.049Z,96.68
2023-02-22T02:08:06.048Z,96.68
2023-02-22T02:09:06.034Z,96.68
2023-02-22T02:10:06.048Z,96.68
2023-02-22T02:11:06.050Z,96.68
2023-02-22T02:12:06.049Z,96.68
2023-02-22T02:13:06.035Z,96.68
2023-02-22T02:14:06.049Z,96.67
2023-02-22T02:15:06.051Z,96.68
2023-02-22T02:16:06.035Z,96.67
2023-02-22T02:17:06.035Z,96.68
2023-02-22T02:18:06.050Z,96.67
2023-02-22T02:19:06.050Z,96.67
2023-02-22T02:20:06.035Z,96.67
2023-02-22T02:21:06.051Z,96.67
2023-02-22T02:22:06.051Z,96.67
2023-02-22T02:23:06.050Z,96.67
2023-02-22T02:24:06.036Z,96.67
2023-02-22T02:25:06.050Z,96.67
2023-02-22T02:26:06.076Z,96.67
2023-02-22T02:27:06.050Z,96.66
2023-02-22T02:28:06.036Z,96.66
2023-02-22T02:29:06.050Z,96.67
2023-02-22T02:30:06.051Z,96.66
2023-02-22T02:31:06.051Z,96.67
2023-02-22T02:32:06.037Z,96.67
2023-02-22T02:33:06.052Z,96.67
2023-02-22T02:34:06.053Z,96.67
2023-02-22T02:35:06.037Z,96.67
2023-02-22T02:36:06.037Z,96.67
2023-02-22T02:37:06.052Z,96.66
2023-02-22T02:38:06.052Z,96.66
2023-02-22T02:39:06.038Z,96.66
2023-02-22T02:40:06.037Z,96.66
2023-02-22T02:41:06.052Z,96.66
2023-02-22T02:42:06.052Z,96.66
2023-02-22T02:43:06.038Z,96.66
2023-02-22T02:44:06.053Z,96.65
2023-02-22T02:45:06.053Z,96.65
2023-02-22T02:46:06.053Z,96.66
2023-02-22T02:47:06.052Z,96.65
2023-02-22T02:48:06.052Z,96.65
2023-02-22T02:49:06.054Z,96.65
2023-02-22T02:50:06.052Z,96.65
2023-02-22T02:51:06.038Z,96.65
2023-02-22T02:52:06.052Z,96.65
2023-02-22T02:53:06.053Z,96.64
2023-02-22T02:54:06.039Z,96.64
2023-02-22T02:55:06.039Z,96.64
2023-02-22T02:56:06.054Z,96.64
2023-02-22T02:57:06.055Z,96.64
2023-02-22T02:58:06.040Z,96.64
2023-02-22T02:59:06.039Z,96.64
2023-02-22T03:00:06.053Z,96.64
2023-02-22T03:01:06.062Z,96.64
2023-02-22T03:02:06.039Z,96.63
2023-02-22T03:03:06.053Z,96.64
2023-02-22T03:04:06.054Z,96.63
2023-02-22T03:05:06.055Z,96.63
2023-02-22T03:06:06.040Z,96.63
2023-02-22T03:07:06.054Z,96.63
2023-02-22T03:08:06.055Z,96.62
2023-02-22T03:09:06.055Z,96.62
2023-02-22T03:10:06.040Z,96.62
2023-02-22T03:11:06.055Z,96.61
2023-02-22T03:12:06.056Z,96.62
2023-02-22T03:13:06.054Z,96.61
2023-02-22T03:14:06.041Z,96.61
2023-02-22T03:15:06.055Z,96.61
2023-02-22T03:16:06.056Z,96.61
2023-02-22T03:17:06.041Z,96.61
2023-02-22T03:18:06.041Z,96.6
2023-02-22T03:19:06.056Z,96.6
2023-02-22T03:20:06.057Z,96.6
2023-02-22T03:21:06.041Z,96.6
2023-02-22T03:22:06.056Z,96.6
2023-02-22T03:23:06.055Z,96.61
2023-02-22T03:24:06.055Z,96.6
2023-02-22T03:25:06.041Z,96.61
2023-02-22T03:26:06.056Z,96.61
2023-02-22T03:27:06.056Z,96.61
2023-02-22T03:28:06.057Z,96.6
2023-02-22T03:29:06.043Z,96.6
2023-02-22T03:30:06.057Z,96.6
2023-02-22T03:31:06.058Z,96.6
2023-02-22T03:32:06.057Z,96.6
2023-02-22T03:33:06.043Z,96.6
2023-02-22T03:34:06.122Z,96.6
2023-02-22T03:35:06.058Z,96.6
2023-02-22T03:36:06.043Z,96.6
2023-02-22T03:37:06.042Z,96.6
2023-02-22T03:38:06.057Z,96.6
2023-02-22T03:39:06.058Z,96.6
2023-02-22T03:40:06.044Z,96.6
2023-02-22T03:41:06.098Z,96.59
2023-02-22T03:42:06.058Z,96.6
2023-02-22T03:43:06.057Z,96.6
2023-02-22T03:44:06.043Z,96.6
2023-02-22T03:45:06.057Z,96.6
2023-02-22T03:46:06.058Z,96.59
2023-02-22T03:47:06.057Z,96.59
2023-02-22T03:48:06.043Z,96.6
2023-02-22T03:49:06.058Z,96.59
2023-02-22T03:50:06.059Z,96.59
2023-02-22T03:51:06.058Z,96.59
2023-02-22T03:52:06.045Z,96.59
2023-02-22T03:53:06.058Z,96.59
2023-02-22T03:55:06.044Z,96.59
2023-02-22T03:56:06.044Z,96.59
2023-02-22T03:57:06.058Z,96.59
2023-02-22T03:58:06.059Z,96.59
2023-02-22T03:59:06.044Z,96.59
2023-02-22T04:00:06.044Z,96.59
2023-02-22T04:01:06.060Z,96.59
2023-02-22T04:02:06.060Z,96.59
2023-02-22T04:03:06.045Z,96.59
2023-02-22T04:04:06.059Z,96.59
2023-02-22T04:05:06.060Z,96.59
2023-02-22T04:06:06.059Z,96.59
2023-02-22T04:07:06.045Z,96.59
2023-02-22T04:08:06.060Z,96.59
2023-02-22T04:09:06.061Z,96.59
2023-02-22T04:10:06.060Z,96.59
2023-02-22T04:11:06.045Z,96.59
2023-02-22T04:12:06.060Z,96.59
2023-02-22T04:13:06.062Z,96.59
2023-02-22T04:14:06.046Z,96.59
2023-02-22T04:15:06.046Z,96.59
2023-02-22T04:16:06.061Z,96.59
2023-02-22T04:17:06.062Z,96.59
2023-02-22T04:18:06.046Z,96.59
2023-02-22T04:19:06.046Z,96.59
2023-02-22T04:20:06.061Z,96.59
2023-02-22T04:21:06.061Z,96.58
2023-02-22T04:22:06.046Z,96.59
2023-02-22T04:23:06.060Z,96.58
2023-02-22T04:24:06.061Z,96.58
2023-02-22T04:25:06.061Z,96.58
2023-02-22T04:26:06.047Z,96.58
2023-02-22T04:27:06.062Z,96.58
2023-02-22T04:28:06.062Z,96.58
2023-02-22T04:29:06.062Z,96.58
2023-02-22T04:30:06.047Z,96.58
2023-02-22T04:31:06.061Z,96.58
2023-02-22T04:32:06.062Z,96.58
2023-02-22T04:33:06.061Z,96.58
2023-02-22T04:34:06.048Z,96.58
2023-02-22T04:35:06.062Z,96.58
2023-02-22T04:36:06.063Z,96.58
2023-02-22T04:37:06.048Z,96.59
2023-02-22T04:38:06.048Z,96.58
2023-02-22T04:39:06.063Z,96.58
2023-02-22T04:40:06.063Z,96.58
2023-02-22T04:41:06.048Z,96.58
2023-02-22T04:42:06.048Z,96.58
2023-02-22T04:43:06.063Z,96.58
2023-02-22T04:44:06.063Z,96.58
2023-02-22T04:45:06.048Z,96.58
2023-02-22T04:46:06.062Z,96.58
2023-02-22T04:47:06.063Z,96.59
2023-02-22T04:48:06.064Z,96.58
2023-02-22T04:49:06.050Z,96.59
2023-02-22T04:50:06.063Z,96.58
2023-02-22T04:51:06.065Z,96.58
2023-02-22T04:52:06.063Z,96.58
2023-02-22T04:53:06.049Z,96.58
2023-02-22T04:54:06.063Z,96.58
2023-02-22T04:55:06.064Z,96.58
2023-02-22T04:56:06.049Z,96.58
2023-02-22T04:57:06.049Z,96.58
2023-02-22T04:58:06.064Z,96.58
2023-02-22T04:59:06.066Z,96.57
2023-02-22T05:00:06.050Z,96.58
2023-02-22T05:01:06.050Z,96.58
2023-02-22T05:02:06.065Z,96.58
2023-02-22T05:03:06.064Z,96.58
2023-02-22T05:04:06.050Z,96.57
2023-02-22T05:05:06.065Z,96.57
2023-02-22T05:06:06.065Z,96.57
2023-02-22T05:07:06.065Z,96.57
2023-02-22T05:08:06.050Z,96.57
2023-02-22T05:09:06.064Z,96.57
2023-02-22T05:10:06.066Z,96.57
2023-02-22T05:11:06.065Z,96.57
2023-02-22T05:12:06.051Z,96.57
2023-02-22T05:13:06.066Z,96.57
2023-02-22T05:14:06.066Z,96.57
2023-02-22T05:15:06.065Z,96.57
2023-02-22T05:16:06.051Z,96.57
2023-02-22T05:17:06.066Z,96.57
2023-02-22T05:18:06.067Z,96.57
2023-02-22T05:19:06.051Z,96.57
2023-02-22T05:20:06.052Z,96.57
2023-02-22T05:21:06.066Z,96.56
2023-02-22T05:22:06.131Z,96.56
2023-02-22T05:23:06.052Z,96.56
2023-02-22T05:24:06.067Z,96.56
2023-02-22T05:25:06.067Z,96.56
2023-02-22T05:26:06.066Z,96.56
2023-02-22T05:27:06.053Z,96.56
2023-02-22T05:28:06.066Z,96.56
2023-02-22T05:29:06.092Z,96.56
2023-02-22T05:30:06.067Z,96.56
2023-02-22T05:31:06.052Z,96.56
2023-02-22T05:32:06.066Z,96.55
2023-02-22T05:33:06.068Z,96.56
2023-02-22T05:34:06.067Z,96.55
2023-02-22T05:35:06.053Z,96.56
2023-02-22T05:36:06.115Z,96.55
2023-02-22T05:37:06.069Z,96.55
2023-02-22T05:38:06.053Z,96.55
2023-02-22T05:39:06.053Z,96.55
2023-02-22T05:40:06.067Z,96.55
2023-02-22T05:41:06.069Z,96.55
2023-02-22T05:42:06.053Z,96.55
2023-02-22T05:43:06.091Z,96.55
2023-02-22T05:44:06.068Z,96.55
2023-02-22T05:45:06.067Z,96.55
2023-02-22T05:46:06.054Z,96.55
2023-02-22T05:47:06.068Z,96.55
2023-02-22T05:48:06.069Z,96.55
2023-02-22T05:49:06.068Z,96.55
2023-02-22T05:50:06.054Z,96.55
2023-02-22T05:51:06.068Z,96.55
2023-02-22T05:52:06.070Z,96.55
2023-02-22T05:53:06.069Z,96.55
2023-02-22T05:54:06.054Z,96.55
2023-02-22T05:55:06.068Z,96.55
2023-02-22T05:56:06.069Z,96.55
2023-02-22T05:57:06.054Z,96.55
2023-02-22T05:58:06.056Z,96.55
2023-02-22T05:59:06.070Z,96.55
2023-02-22T06:00:06.070Z,96.55
2023-02-22T06:01:06.055Z,96.55
2023-02-22T06:02:06.056Z,96.55
2023-02-22T06:03:06.069Z,96.55
2023-02-22T06:04:06.070Z,96.54
2023-02-22T06:05:06.055Z,96.55
2023-02-22T06:06:06.070Z,96.55
2023-02-22T06:07:06.069Z,96.55
2023-02-22T06:08:06.069Z,96.54
2023-02-22T06:09:06.055Z,96.54
2023-02-22T06:10:06.070Z,96.54
2023-02-22T06:11:06.072Z,96.55
2023-02-22T06:12:06.071Z,96.54
2023-02-22T06:13:06.056Z,96.54
2023-02-22T06:14:06.071Z,96.55
2023-02-22T06:15:06.072Z,96.54
2023-02-22T06:16:06.070Z,96.54
2023-02-22T06:17:06.056Z,96.54
2023-02-22T06:18:06.071Z,96.54
2023-02-22T06:19:06.072Z,96.54
2023-02-22T06:20:06.057Z,96.54
2023-02-22T06:21:06.056Z,96.54
2023-02-22T06:22:06.071Z,96.54
2023-02-22T06:23:06.072Z,96.54
2023-02-22T06:24:06.057Z,96.54
2023-02-22T06:25:06.071Z,96.54
2023-02-22T06:26:06.071Z,96.54
2023-02-22T06:27:06.071Z,96.54
2023-02-22T06:28:06.057Z,96.54
2023-02-22T06:29:06.072Z,96.54
2023-02-22T06:30:06.098Z,96.54
2023-02-22T06:31:06.072Z,96.55
2023-02-22T06:32:06.058Z,96.54
2023-02-22T06:33:06.071Z,96.54
2023-02-22T06:34:06.073Z,96.54
2023-02-22T06:35:06.073Z,96.54
2023-02-22T06:36:06.058Z,96.54
2023-02-22T06:37:06.120Z,96.55
2023-02-22T06:38:06.074Z,96.54
2023-02-22T06:39:06.058Z,96.54
2023-02-22T06:40:06.058Z,96.54
2023-02-22T06:41:06.073Z,96.54
2023-02-22T06:42:06.074Z,96.54
2023-02-22T06:43:06.058Z,96.54
2023-02-22T06:44:06.097Z,96.54
2023-02-22T06:45:06.073Z,96.54
2023-02-22T06:46:06.073Z,96.54
2023-02-22T06:47:06.059Z,96.54
2023-02-22T06:48:06.073Z,96.54
2023-02-22T06:49:06.074Z,96.54
2023-02-22T06:50:06.073Z,96.54
2023-02-22T06:51:06.059Z,96.54
2023-02-22T06:52:06.073Z,96.54
2023-02-22T06:53:06.075Z,96.54
2023-02-22T06:54:06.073Z,96.54
2023-02-22T06:55:06.059Z,96.54
2023-02-22T06:56:06.073Z,96.54
2023-02-22T06:57:06.075Z,96.54
2023-02-22T06:58:06.060Z,96.54
2023-02-22T06:59:06.060Z,96.54
2023-02-22T07:00:06.075Z,96.54
2023-02-22T07:01:06.076Z,96.54
2023-02-22T07:02:06.060Z,96.54
2023-02-22T07:03:06.060Z,96.54
2023-02-22T07:04:06.075Z,96.54
2023-02-22T07:05:06.075Z,96.54
2023-02-22T07:06:06.060Z,96.54
2023-02-22T07:07:06.074Z,96.54
2023-02-22T07:08:06.076Z,96.55
2023-02-22T07:09:06.076Z,96.54
2023-02-22T07:10:06.061Z,96.54
2023-02-22T07:11:06.075Z,96.54
2023-02-22T07:12:06.076Z,96.54
2023-02-22T07:13:06.075Z,96.54
2023-02-22T07:14:06.061Z,96.55
2023-02-22T07:15:06.075Z,96.54
2023-02-22T07:16:06.077Z,96.54
2023-02-22T07:17:06.076Z,96.54
2023-02-22T07:18:06.063Z,96.54
2023-02-22T07:19:06.077Z,96.54
2023-02-22T07:20:06.077Z,96.55
2023-02-22T07:21:06.062Z,96.55
2023-02-22T07:22:06.062Z,96.54
2023-02-22T07:23:06.077Z,96.54
2023-02-22T07:24:06.077Z,96.54
2023-02-22T07:25:06.062Z,96.54
2023-02-22T07:26:06.076Z,96.55
2023-02-22T07:27:06.078Z,96.54
2023-02-22T07:28:06.078Z,96.54
2023-02-22T07:29:06.063Z,96.54
2023-02-22T07:30:06.077Z,96.54
2023-02-22T07:31:06.103Z,96.54
2023-02-22T07:32:06.078Z,96.54
2023-02-22T07:33:06.063Z,96.54
2023-02-22T07:34:06.077Z,96.54
2023-02-22T07:35:06.078Z,96.54
2023-02-22T07:36:22.557Z,96.54
2023-02-22T07:37:06.064Z,96.54
2023-02-22T07:38:06.102Z,96.54
2023-02-22T07:39:06.080Z,96.54
2023-02-22T07:40:06.064Z,96.54
2023-02-22T07:41:06.064Z,96.54
2023-02-22T07:42:06.078Z,96.54
2023-02-22T07:43:06.080Z,96.54
2023-02-22T07:44:06.064Z,96.54
2023-02-22T07:45:06.103Z,96.54
2023-02-22T07:46:06.080Z,96.54
2023-02-22T07:47:06.079Z,96.54
2023-02-22T07:48:06.065Z,96.53
2023-02-22T07:49:06.079Z,96.53
2023-02-22T07:50:06.079Z,96.53
2023-02-22T07:51:06.079Z,96.53
2023-02-22T07:52:06.065Z,96.52
2023-02-22T07:53:06.079Z,96.52
2023-02-22T07:54:06.081Z,96.53
2023-02-22T07:55:06.080Z,96.52
2023-02-22T07:56:06.066Z,96.52
2023-02-22T07:57:06.080Z,96.52
2023-02-22T07:58:06.081Z,96.51
2023-02-22T07:59:06.066Z,96.51
2023-02-22T08:00:06.067Z,96.51
2023-02-22T08:01:06.081Z,96.51
2023-02-22T08:02:06.083Z,96.51
2023-02-22T08:03:06.067Z,96.5
2023-02-22T08:04:06.067Z,96.5
2023-02-22T08:05:06.082Z,96.5
2023-02-22T08:06:06.082Z,96.5
2023-02-22T08:07:06.069Z,96.49
2023-02-22T08:08:06.083Z,96.48
2023-02-22T08:09:06.083Z,96.48
2023-02-22T08:10:06.082Z,96.48
2023-02-22T08:11:06.068Z,96.48
2023-02-22T08:12:06.083Z,96.48
2023-02-22T08:13:06.085Z,96.48
2023-02-22T08:14:06.083Z,96.49
2023-02-22T08:15:06.070Z,96.49
2023-02-22T08:16:06.084Z,96.49
2023-02-22T08:17:06.086Z,96.49
2023-02-22T08:18:06.085Z,96.49
2023-02-22T08:19:06.071Z,96.49
2023-02-22T08:20:06.084Z,96.5
2023-02-22T08:21:06.086Z,96.49
2023-02-22T08:22:06.071Z,96.49
2023-02-22T08:23:06.071Z,96.49
2023-02-22T08:24:06.085Z,96.49
2023-02-22T08:25:06.087Z,96.49
2023-02-22T08:26:06.071Z,96.49
2023-02-22T08:27:06.086Z,96.49
2023-02-22T08:28:06.087Z,96.49
2023-02-22T08:29:06.087Z,96.49
2023-02-22T08:30:06.072Z,96.49
2023-02-22T08:31:06.086Z,96.48
2023-02-22T08:32:06.114Z,96.47
2023-02-22T08:33:06.088Z,96.46
2023-02-22T08:34:06.073Z,96.45
2023-02-22T08:35:06.087Z,96.45
2023-02-22T08:36:06.088Z,96.44
2023-02-22T08:37:06.088Z,96.43
2023-02-22T08:38:06.074Z,96.43
2023-02-22T08:39:06.137Z,96.42
2023-02-22T08:40:06.090Z,96.42
2023-02-22T08:41:06.075Z,96.42
2023-02-22T08:42:06.075Z,96.41
2023-02-22T08:43:06.091Z,96.41
2023-02-22T08:44:06.092Z,96.41
2023-02-22T08:45:06.076Z,96.41
2023-02-22T08:46:06.091Z,96.41
2023-02-22T08:47:06.092Z,96.41
2023-02-22T08:48:06.091Z,96.41
2023-02-22T08:49:06.078Z,96.41
2023-02-22T08:50:06.092Z,96.41
2023-02-22T08:51:06.093Z,96.41
2023-02-22T08:52:06.094Z,96.4
2023-02-22T08:53:06.079Z,96.4
2023-02-22T08:54:06.094Z,96.4
2023-02-22T08:55:06.096Z,96.4
2023-02-22T08:56:06.094Z,96.4
2023-02-22T08:57:06.082Z,96.4
2023-02-22T08:58:06.095Z,96.4
2023-02-22T08:59:06.097Z,96.4
2023-02-22T09:00:06.082Z,96.4
2023-02-22T09:01:06.083Z,96.41
2023-02-22T09:02:06.098Z,96.41
2023-02-22T09:03:06.098Z,96.41
2023-02-22T09:04:06.084Z,96.41
2023-02-22T09:05:06.084Z,96.41
2023-02-22T09:06:06.100Z,96.4
2023-02-22T09:07:06.100Z,96.4
2023-02-22T09:08:06.085Z,96.39
2023-02-22T09:09:06.100Z,96.39
2023-02-22T09:10:06.100Z,96.39
2023-02-22T09:11:06.102Z,96.39
2023-02-22T09:12:06.088Z,96.39
2023-02-22T09:13:06.102Z,96.38
2023-02-22T09:14:06.104Z,96.38
2023-02-22T09:15:06.103Z,96.38
2023-02-22T09:16:22.567Z,96.38
2023-02-22T09:17:06.104Z,96.38
2023-02-22T09:18:06.106Z,96.37
2023-02-22T09:19:06.104Z,96.37
2023-02-22T09:20:06.091Z,96.38
2023-02-22T09:21:06.105Z,96.38
2023-02-22T09:22:06.107Z,96.38
2023-02-22T09:23:06.092Z,96.38
2023-02-22T09:24:06.093Z,96.38
2023-02-22T09:25:06.107Z,96.38
2023-02-22T09:26:06.109Z,96.38
2023-02-22T09:27:06.094Z,96.38
2023-02-22T09:28:06.109Z,96.38
2023-02-22T09:29:06.109Z,96.38
2023-02-22T09:30:06.110Z,96.38
2023-02-22T09:31:06.096Z,96.38
2023-02-22T09:32:06.111Z,96.38
2023-02-22T09:33:06.111Z,96.37
2023-02-22T09:34:06.112Z,96.38
2023-02-22T09:35:06.099Z,96.38
2023-02-22T09:37:06.114Z,96.37
2023-02-22T09:38:06.115Z,96.38
2023-02-22T09:39:06.101Z,96.38
2023-02-22T09:40:06.115Z,96.38
2023-02-22T09:41:06.118Z,96.38
2023-02-22T09:42:06.102Z,96.38
2023-02-22T09:43:06.103Z,96.38
2023-02-22T09:44:06.118Z,96.38
2023-02-22T09:45:06.120Z,96.39
2023-02-22T09:46:06.104Z,96.38
2023-02-22T09:47:06.105Z,96.38
2023-02-22T09:48:06.120Z,96.38
2023-02-22T09:49:06.121Z,96.38
2023-02-22T09:50:06.106Z,96.38
2023-02-22T09:51:06.121Z,96.37
2023-02-22T09:52:06.121Z,96.38
2023-02-22T09:53:06.122Z,96.38
2023-02-22T09:54:06.108Z,96.37
2023-02-22T09:55:06.123Z,96.37
2023-02-22T09:56:06.125Z,96.37
2023-02-22T09:57:06.124Z,96.37
2023-02-22T09:58:06.110Z,96.37
2023-02-22T10:00:06.127Z,96.36
2023-02-22T10:01:06.112Z,96.37
2023-02-22T10:02:06.112Z,96.36
2023-02-22T10:03:06.128Z,96.36
2023-02-22T10:04:06.128Z,96.36
2023-02-22T10:05:06.114Z,96.36
2023-02-22T10:06:06.114Z,96.36
2023-02-22T10:07:06.130Z,96.36
2023-02-22T10:08:06.130Z,96.35
2023-02-22T10:09:06.116Z,96.36
2023-02-22T10:10:06.131Z,96.36
2023-02-22T10:11:06.132Z,96.36
2023-02-22T10:12:06.132Z,96.36
2023-02-22T10:13:06.118Z,96.36
2023-02-22T10:14:06.133Z,96.35
2023-02-22T10:15:06.134Z,96.35
2023-02-22T10:16:06.135Z,96.35
2023-02-22T10:17:06.120Z,96.36
2023-02-22T10:18:06.136Z,96.36
2023-02-22T10:19:06.136Z,96.36
2023-02-22T10:20:06.136Z,96.35
2023-02-22T10:21:06.122Z,96.36
2023-02-22T10:22:06.137Z,96.36
2023-02-22T10:23:06.138Z,96.36
2023-02-22T10:24:06.124Z,96.36
2023-02-22T10:25:06.125Z,96.36
2023-02-22T10:26:06.139Z,96.35
2023-02-22T10:27:06.165Z,96.36
2023-02-22T10:28:06.126Z,96.36
2023-02-22T10:29:06.141Z,96.36
2023-02-22T10:30:06.141Z,96.36
2023-02-22T10:31:06.143Z,96.36
2023-02-22T10:32:06.128Z,96.36
2023-02-22T10:33:06.144Z,96.36
2023-02-22T10:34:06.194Z,96.37
2023-02-22T10:35:06.144Z,96.36
2023-02-22T10:36:06.130Z,96.36
2023-02-22T10:37:06.146Z,96.36
2023-02-22T10:38:06.147Z,96.37
2023-02-22T10:39:06.146Z,96.37
2023-02-22T10:40:06.133Z,96.36
2023-02-22T10:41:06.171Z,96.36
2023-02-22T10:42:06.149Z,96.36
2023-02-22T10:43:06.134Z,96.36
2023-02-22T10:44:06.135Z,96.36
2023-02-22T10:45:06.149Z,96.36
2023-02-22T10:46:06.152Z,96.35
2023-02-22T10:47:06.136Z,96.35
2023-02-22T10:48:06.177Z,96.35
2023-02-22T10:49:06.152Z,96.35
2023-02-22T10:50:06.153Z,96.36
2023-02-22T10:51:06.138Z,96.36
2023-02-22T10:52:06.153Z,96.36
2023-02-22T10:53:06.154Z,96.36
2023-02-22T10:54:06.154Z,96.36
2023-02-22T10:55:06.140Z,96.36
2023-02-22T10:56:22.000Z,96.36
2023-02-22T10:57:06.157Z,96.36
2023-02-22T10:58:06.157Z,96.36
2023-02-22T10:59:06.142Z,96.36
2023-02-22T11:00:06.157Z,96.35
2023-02-22T11:01:06.159Z,96.35
2023-02-22T11:02:06.144Z,96.35
2023-02-22T11:03:06.145Z,96.35
2023-02-22T11:04:06.160Z,96.35
2023-02-22T11:05:06.161Z,96.35
2023-02-22T11:06:06.147Z,96.35
2023-02-22T11:07:06.146Z,96.35
2023-02-22T11:08:06.162Z,96.35
2023-02-22T11:09:06.185Z,96.34
2023-02-22T11:10:06.148Z,96.34
2023-02-22T11:11:06.162Z,96.34
2023-02-22T11:12:06.164Z,96.34
2023-02-22T11:13:06.163Z,96.33
2023-02-22T11:14:06.150Z,96.33
2023-02-22T11:15:06.164Z,96.32
2023-02-22T11:16:06.216Z,96.33
2023-02-22T11:17:06.166Z,96.32
2023-02-22T11:18:06.152Z,96.31
2023-02-22T11:19:06.166Z,96.32
2023-02-22T11:20:06.169Z,96.31
2023-02-22T11:21:06.167Z,96.31
2023-02-22T11:23:06.192Z,96.31
2023-02-22T11:24:06.170Z,96.3
2023-02-22T11:25:06.155Z,96.3
2023-02-22T11:26:06.156Z,96.3
2023-02-22T11:27:06.172Z,96.31
2023-02-22T11:28:06.173Z,96.3
2023-02-22T11:29:06.158Z,96.3
2023-02-22T11:30:06.212Z,96.3
2023-02-22T11:31:06.174Z,96.31
2023-02-22T11:32:06.174Z,96.3
2023-02-22T11:33:06.161Z,96.31
2023-02-22T11:34:06.174Z,96.3
2023-02-22T11:35:06.175Z,96.3
2023-02-22T11:36:06.176Z,96.3
2023-02-22T11:37:06.162Z,96.29
2023-02-22T11:38:06.176Z,96.29
2023-02-22T11:39:06.178Z,96.29
2023-02-22T11:40:06.179Z,96.29
2023-02-22T11:41:06.164Z,96.29
2023-02-22T11:42:06.179Z,96.29
2023-02-22T11:43:06.181Z,96.29
2023-02-22T11:44:06.166Z,96.29
2023-02-22T11:45:06.166Z,96.29
2023-02-22T11:46:06.182Z,96.29
2023-02-22T11:47:06.183Z,96.29
2023-02-22T11:48:06.168Z,96.29
2023-02-22T11:49:06.168Z,96.29
2023-02-22T11:50:06.184Z,96.29
2023-02-22T11:51:06.183Z,96.28
2023-02-22T11:52:06.170Z,96.28
2023-02-22T11:53:06.185Z,96.28
2023-02-22T11:54:06.186Z,96.28
2023-02-22T11:55:06.186Z,96.27
2023-02-22T11:56:06.173Z,96.27
2023-02-22T11:57:06.187Z,96.26
2023-02-22T11:58:06.188Z,96.27
2023-02-22T11:59:06.189Z,96.28
2023-02-22T12:00:06.174Z,96.27
2023-02-22T12:01:06.189Z,96.27
2023-02-22T12:02:06.190Z,96.27
2023-02-22T12:03:06.176Z,96.28
2023-02-22T12:04:06.177Z,96.27
2023-02-22T12:05:06.192Z,96.28
2023-02-22T12:06:06.193Z,96.28
2023-02-22T12:07:06.178Z,96.28
2023-02-22T12:08:06.179Z,96.28
2023-02-22T12:09:06.193Z,96.28
2023-02-22T12:10:06.243Z,96.28
2023-02-22T12:11:06.180Z,96.29
2023-02-22T12:12:06.195Z,96.28
2023-02-22T12:13:06.196Z,96.29
2023-02-22T12:14:06.197Z,96.28
2023-02-22T12:15:06.182Z,96.28
2023-02-22T12:16:06.197Z,96.28
2023-02-22T12:17:06.200Z,96.28
2023-02-22T12:18:06.197Z,96.27
2023-02-22T12:19:06.184Z,96.27
2023-02-22T12:20:06.198Z,96.28
2023-02-22T12:21:06.201Z,96.28
2023-02-22T12:22:06.200Z,96.28
2023-02-22T12:23:06.187Z,96.28
2023-02-22T12:24:06.200Z,96.28
2023-02-22T12:25:06.202Z,96.28
2023-02-22T12:26:06.188Z,96.28
2023-02-22T12:27:06.189Z,96.28
2023-02-22T12:28:06.203Z,96.27
2023-02-22T12:29:06.204Z,96.27
2023-02-22T12:30:06.189Z,96.27
2023-02-22T12:31:06.203Z,96.27
2023-02-22T12:32:06.204Z,96.27
2023-02-22T12:33:06.204Z,96.27
2023-02-22T12:34:06.191Z,96.27
2023-02-22T12:35:06.205Z,96.27
2023-02-22T12:36:22.684Z,96.26
2023-02-22T12:37:06.206Z,96.26
2023-02-22T12:38:06.194Z,96.26
2023-02-22T12:39:06.209Z,96.26
2023-02-22T12:40:06.209Z,96.26
2023-02-22T12:41:06.208Z,96.26
2023-02-22T12:42:06.194Z,96.26
2023-02-22T12:43:06.209Z,96.26
2023-02-22T12:44:06.210Z,96.26
2023-02-22T12:45:06.196Z,96.26
2023-02-22T12:46:06.196Z,96.26
2023-02-22T12:47:06.212Z,96.26
2023-02-22T12:48:06.212Z,96.26
2023-02-22T12:49:06.197Z,96.26
2023-02-22T12:50:06.198Z,96.26
2023-02-22T12:51:06.213Z,96.26
2023-02-22T12:52:06.213Z,96.26
2023-02-22T12:53:06.199Z,96.25
2023-02-22T12:54:06.214Z,96.25
2023-02-22T12:55:06.215Z,96.25
2023-02-22T12:56:06.216Z,96.25
2023-02-22T12:57:06.201Z,96.25
2023-02-22T12:58:06.216Z,96.25